Main page
METAR-TAF:

METAR-TAF

Airports :

MOD St Athan

St Athan, Wales

latitude: 51-24N, longitude: 003-26W, elevation: 50 m

Current weather observation

The report was made 1 hour and 20 minutes ago, at 17:50 UTC
Wind 10 kt from the South/Southwest
Temperature 12°C
Humidity 76%
Pressure 1022 hPa
Visibility 10 km or more

METAR: EGDX 131750Z AUTO 21010KT 9999 SCT050/// 12/08 Q1022

Time: 19:10 (19:10 UTC)

Forecast

The report was made 5 hours and 37 minutes ago, at 13:33 UTC
Forecast valid from 13 at 15 UTC to 13 at 18 UTC
Wind 10 kt from the South/Southwest
Visibility 10 km or more
Few clouds at a height of 2500 ft

TAF: EGDX 131333Z 1315/1318 21010KT 9999 FEW025

Weather observations and forecasts of more than 4000 airports (METAR and TAF reports).

The available stations are represented by yellow and red dots on the map.

Hover mouse over dot to see the name of the station.

Then click to see weather observations and forecasts.

To change the map : click on the green buttons with a black cross to zoom in, on the green button with a dash to zoom out, or on the green arrows for adjacent maps.


METAR-TAF: